createdAt,value
2019-02-24T09:20:01.404Z,23.20
2019-02-24T09:23:05.593Z,23.60
2019-02-24T09:26:09.818Z,24.00
2019-02-24T09:29:14.017Z,24.30
2019-02-24T09:32:18.242Z,24.60
2019-02-24T09:35:22.461Z,24.80
2019-02-24T09:38:26.661Z,25.00
2019-02-24T09:41:30.883Z,25.20
2019-02-24T09:44:35.080Z,25.40
2019-02-24T09:47:46.288Z,25.50
2019-02-24T09:50:45.221Z,25.60
2019-02-24T09:53:49.427Z,25.70
2019-02-24T09:56:53.644Z,25.80
2019-02-24T09:59:57.843Z,25.90
2019-02-24T10:03:02.061Z,26.00
2019-02-24T10:06:06.281Z,26.00
2019-02-24T10:09:10.482Z,26.10
2019-02-24T10:12:14.705Z,26.10
2019-02-24T10:15:18.921Z,26.10
2019-02-24T10:18:23.121Z,26.20
2019-02-24T10:21:27.346Z,26.20
2019-02-24T10:24:31.550Z,26.30
2019-02-24T10:27:35.766Z,26.30
2019-02-24T10:30:39.990Z,26.30
2019-02-24T10:33:44.185Z,26.40
2019-02-24T10:36:48.405Z,26.40
2019-02-24T10:39:52.600Z,26.40
2019-02-24T10:42:56.823Z,26.40
2019-02-24T10:46:01.041Z,26.40
2019-02-24T10:49:05.248Z,26.40
2019-02-24T10:52:09.466Z,26.40
2019-02-24T10:55:13.902Z,26.40
2019-02-24T10:58:18.121Z,26.40
2019-02-24T11:01:29.348Z,26.40
2019-02-24T11:04:28.239Z,26.40
2019-02-24T11:07:32.457Z,26.40
2019-02-24T11:10:36.653Z,26.40
2019-02-24T11:13:40.875Z,26.40
2019-02-24T11:16:45.090Z,26.40
2019-02-24T11:19:49.373Z,26.40
2019-02-24T11:22:53.586Z,26.40
2019-02-24T11:25:57.810Z,26.40
2019-02-24T11:29:02.013Z,26.40
2019-02-24T11:32:06.240Z,26.40
2019-02-24T11:35:11.586Z,26.40
2019-02-24T11:38:15.805Z,26.40
2019-02-24T11:41:20.024Z,26.40
2019-02-24T11:44:24.221Z,26.40
2019-02-24T11:47:28.441Z,26.40
2019-02-24T11:50:32.637Z,26.40
2019-02-24T11:53:36.861Z,26.40
2019-02-24T11:56:41.081Z,26.40
2019-02-24T11:59:45.277Z,26.40
2019-02-24T12:02:49.506Z,26.40
2019-02-24T12:05:53.703Z,26.40
2019-02-24T12:09:05.071Z,26.40
2019-02-24T12:12:03.841Z,26.50
2019-02-24T12:15:10.748Z,26.50
2019-02-24T12:18:15.034Z,26.50
2019-02-24T12:21:19.253Z,26.50
2019-02-24T12:24:23.454Z,26.50
2019-02-24T12:27:27.673Z,26.60
2019-02-24T12:30:31.871Z,26.60
2019-02-24T12:33:36.094Z,26.60
2019-02-24T12:36:40.320Z,26.60
2019-02-24T12:39:44.514Z,26.70
2019-02-24T12:42:48.737Z,26.70
2019-02-24T12:45:52.941Z,26.70
2019-02-24T12:48:57.161Z,26.70
2019-02-24T12:52:01.381Z,26.70
2019-02-24T12:55:07.021Z,26.70
2019-02-24T12:58:11.243Z,26.70
2019-02-24T13:01:17.649Z,26.80
2019-02-24T13:04:21.889Z,26.80
2019-02-24T13:07:26.117Z,26.80
2019-02-24T13:10:30.316Z,26.80
2019-02-24T13:13:34.582Z,26.80
2019-02-24T13:16:38.893Z,26.80
2019-02-24T13:19:43.094Z,26.80
2019-02-24T13:22:47.313Z,26.80
2019-02-24T13:25:51.513Z,26.80
2019-02-24T13:28:55.745Z,26.60
2019-02-24T13:31:59.971Z,26.60
2019-02-24T13:35:04.713Z,26.70
2019-02-24T13:38:08.944Z,26.80
2019-02-24T13:41:13.146Z,26.80
2019-02-24T13:44:17.364Z,26.90
2019-02-24T13:47:21.663Z,26.90
2019-02-24T13:50:26.025Z,26.90
2019-02-24T13:53:30.254Z,26.90
2019-02-24T13:56:34.451Z,26.90
2019-02-24T13:59:38.738Z,26.90
2019-02-24T14:02:42.963Z,27.00
2019-02-24T14:05:47.162Z,27.00
2019-02-24T14:08:51.381Z,27.00
2019-02-24T14:11:55.585Z,27.00
2019-02-24T14:14:59.805Z,27.00
2019-02-24T14:18:04.025Z,27.00
2019-02-24T14:21:08.222Z,27.00
2019-02-24T14:24:12.443Z,27.00
2019-02-24T14:27:16.657Z,27.00
2019-02-24T14:30:20.857Z,27.10
2019-02-24T14:33:25.074Z,27.00
2019-02-24T14:36:29.278Z,27.10
2019-02-24T14:39:33.498Z,27.10
2019-02-24T14:42:37.716Z,27.10
2019-02-24T14:45:49.497Z,27.00
2019-02-24T14:48:47.838Z,27.10
2019-02-24T14:51:52.040Z,27.10
2019-02-24T14:54:56.259Z,27.10
2019-02-24T14:58:00.473Z,27.10
2019-02-24T15:01:04.741Z,27.10
2019-02-24T15:04:08.961Z,27.10
2019-02-24T15:07:13.157Z,27.10
2019-02-24T15:10:22.844Z,27.10
2019-02-24T15:13:27.066Z,27.10
2019-02-24T15:16:31.263Z,27.10
2019-02-24T15:19:35.482Z,27.00
2019-02-24T15:22:39.685Z,27.00
2019-02-24T15:25:43.901Z,27.10
2019-02-24T15:28:48.120Z,27.00
2019-02-24T15:31:52.393Z,27.00
2019-02-24T15:34:56.613Z,27.00
2019-02-24T15:38:00.902Z,27.00
2019-02-24T15:41:05.172Z,27.10
2019-02-24T15:44:10.166Z,27.10
2019-02-24T15:47:14.449Z,27.10
2019-02-24T15:50:18.738Z,27.00
2019-02-24T15:53:22.959Z,27.10
2019-02-24T15:56:27.159Z,26.90
2019-02-24T15:59:31.381Z,27.00
2019-02-24T16:02:35.581Z,27.00
2019-02-24T16:05:39.801Z,27.10
2019-02-24T16:08:44.025Z,27.20
2019-02-24T16:11:48.226Z,27.20
2019-02-24T16:14:52.440Z,27.20
2019-02-24T16:17:56.640Z,27.20
2019-02-24T16:21:00.859Z,27.20
2019-02-24T16:24:05.077Z,27.20
2019-02-24T16:27:09.273Z,27.20
2019-02-24T16:30:15.034Z,27.20
2019-02-24T16:33:19.338Z,27.20
2019-02-24T16:36:23.530Z,27.00
2019-02-24T16:39:27.749Z,27.10
2019-02-24T16:42:31.952Z,27.20
2019-02-24T16:45:36.166Z,27.20
2019-02-24T16:48:40.386Z,27.30
2019-02-24T16:51:44.584Z,27.30
2019-02-24T16:54:52.714Z,27.30
2019-02-24T16:57:54.701Z,27.30
2019-02-24T17:00:58.921Z,27.30
2019-02-24T17:04:03.147Z,27.40
2019-02-24T17:07:07.346Z,27.40
2019-02-24T17:10:14.647Z,27.40
2019-02-24T17:13:18.850Z,27.40
2019-02-24T17:16:23.073Z,27.30
2019-02-24T17:19:27.293Z,27.20
2019-02-24T17:22:31.493Z,27.30
2019-02-24T17:25:35.717Z,27.40
2019-02-24T17:28:39.941Z,27.40
2019-02-24T17:31:44.141Z,27.50
2019-02-24T17:34:48.365Z,27.50
2019-02-24T17:37:52.566Z,27.50
2019-02-24T17:40:56.791Z,27.40
2019-02-24T17:44:01.020Z,27.40
2019-02-24T17:47:05.224Z,27.40
2019-02-24T17:50:11.781Z,27.30
2019-02-24T17:53:15.986Z,27.30
2019-02-24T17:56:20.221Z,27.30
2019-02-24T17:59:26.530Z,27.20
2019-02-24T18:02:30.733Z,27.20
2019-02-24T18:05:34.957Z,27.20
2019-02-24T18:08:39.161Z,27.20
2019-02-24T18:11:43.386Z,27.20
2019-02-24T18:14:47.613Z,27.20
2019-02-24T18:17:51.811Z,27.10
2019-02-24T18:20:56.053Z,27.10
2019-02-24T18:24:00.249Z,27.10
2019-02-24T18:27:04.479Z,27.10
2019-02-24T18:30:25.658Z,27.10
2019-02-24T18:33:29.857Z,27.00
2019-02-24T18:36:34.078Z,27.00
2019-02-24T18:39:38.297Z,26.90
2019-02-24T18:42:42.507Z,26.90
2019-02-24T18:45:46.727Z,26.90
2019-02-24T18:48:50.921Z,26.90
2019-02-24T18:51:55.183Z,26.90
2019-02-24T18:54:59.387Z,26.90
2019-02-24T18:58:03.587Z,26.90
2019-02-24T19:01:07.878Z,26.80
2019-02-24T19:04:12.075Z,26.80
2019-02-24T19:07:16.295Z,26.80
2019-02-24T19:10:22.425Z,26.80
2019-02-24T19:13:26.630Z,26.70
2019-02-24T19:16:30.851Z,26.70
2019-02-24T19:19:35.067Z,26.70
2019-02-24T19:22:39.274Z,26.70
2019-02-24T19:25:43.493Z,26.60
2019-02-24T19:28:47.697Z,26.60
2019-02-24T19:31:51.913Z,26.60
2019-02-24T19:34:56.133Z,26.60
2019-02-24T19:38:00.345Z,26.60
2019-02-24T19:41:04.636Z,26.60
2019-02-24T19:44:08.833Z,26.50
2019-02-24T19:47:13.058Z,26.50
2019-02-24T19:50:18.122Z,26.50
2019-02-24T19:53:22.322Z,26.50
2019-02-24T19:56:26.545Z,26.50
2019-02-24T19:59:30.746Z,26.40
2019-02-24T20:02:34.970Z,26.40
2019-02-24T20:05:40.117Z,26.40
2019-02-24T20:08:44.325Z,26.40
2019-02-24T20:11:48.548Z,26.40
2019-02-24T20:14:52.741Z,26.40
2019-02-24T20:17:56.965Z,26.40
2019-02-24T20:21:01.186Z,26.30
2019-02-24T20:24:05.399Z,26.30
2019-02-24T20:27:09.626Z,26.30
2019-02-24T20:30:19.460Z,26.30
2019-02-24T20:33:23.661Z,26.30
2019-02-24T20:36:27.887Z,26.30
2019-02-24T20:39:32.087Z,26.20
2019-02-24T20:42:36.306Z,26.20
2019-02-24T20:45:40.526Z,26.20
2019-02-24T20:48:44.726Z,26.20
2019-02-24T20:51:48.952Z,26.20
2019-02-24T20:54:53.146Z,26.20
2019-02-24T20:57:57.371Z,26.20
2019-02-24T21:01:01.670Z,26.20
2019-02-24T21:04:05.870Z,26.10
2019-02-24T21:07:10.092Z,26.10
2019-02-24T21:10:14.309Z,26.10
2019-02-24T21:13:18.535Z,26.10
2019-02-24T21:16:22.757Z,26.00
2019-02-24T21:19:27.047Z,26.10
2019-02-24T21:22:31.270Z,26.00
2019-02-24T21:25:35.473Z,26.00
2019-02-24T21:28:39.692Z,26.00
2019-02-24T21:31:43.919Z,26.00
2019-02-24T21:34:48.109Z,26.00
2019-02-24T21:37:52.328Z,26.00
2019-02-24T21:40:56.717Z,26.00
2019-02-24T21:44:00.918Z,25.90
2019-02-24T21:47:05.141Z,25.90
2019-02-24T21:50:11.797Z,25.90
2019-02-24T21:53:16.013Z,25.80
2019-02-24T21:56:20.229Z,25.80
2019-02-24T21:59:24.427Z,25.80
2019-02-24T22:02:28.648Z,25.80
2019-02-24T22:05:32.893Z,25.80
2019-02-24T22:08:37.121Z,25.70
2019-02-24T22:11:41.349Z,25.70
2019-02-24T22:14:45.553Z,25.70
2019-02-24T22:17:49.773Z,25.70
2019-02-24T22:20:53.976Z,25.70
2019-02-24T22:23:58.194Z,25.60
2019-02-24T22:27:02.413Z,25.60
2019-02-24T22:30:15.093Z,25.60
2019-02-24T22:33:19.316Z,25.60
2019-02-24T22:36:23.513Z,25.60
2019-02-24T22:39:27.743Z,25.60
2019-02-24T22:42:31.956Z,25.50
2019-02-24T22:45:36.150Z,25.50
2019-02-24T22:48:40.450Z,25.50
2019-02-24T22:51:44.673Z,25.50
2019-02-24T22:54:48.873Z,25.50
2019-02-24T22:57:53.089Z,25.50
2019-02-24T23:01:01.529Z,25.50
2019-02-24T23:04:04.941Z,25.50
2019-02-24T23:07:09.154Z,25.50
2019-02-24T23:10:13.590Z,25.50
2019-02-24T23:13:17.810Z,25.50
2019-02-24T23:16:22.005Z,25.40
2019-02-24T23:19:26.225Z,25.50
2019-02-24T23:22:30.423Z,25.40
2019-02-24T23:25:34.637Z,25.40
2019-02-24T23:28:38.857Z,25.40
2019-02-24T23:31:43.057Z,25.40
2019-02-24T23:34:47.273Z,25.40
2019-02-24T23:37:51.473Z,25.40
2019-02-24T23:40:55.689Z,25.40
2019-02-24T23:43:59.909Z,25.40
2019-02-24T23:47:04.105Z,25.40
2019-02-24T23:50:09.861Z,25.30
2019-02-24T23:53:14.061Z,25.30
2019-02-24T23:56:18.284Z,25.30
2019-02-24T23:59:22.501Z,25.30
